Time;durP1;ratioP1;P1;durP2;ratioP2;P2;SDS_P1;SDS_P2;PMS_P1;PMS_P2;Temp;Humidity;BMP_temperature;BMP_pressure;BME280_temperature;BME280_humidity;BME280_pressure;Samples;Min_cycle;Max_cycle;Signal;HPM_P1;HPM_P2
2024/02/17 00:00:13;;;;;;;34.03;24.77;;;;;;;7.80;100.00;99102.13;6233583;22;20012;-70
2024/02/17 00:02:41;;;;;;;34.95;24.55;;;;;;;7.92;100.00;99110.72;6260154;22;20003;-70
2024/02/17 00:05:07;;;;;;;37.53;25.67;;;;;;;7.96;100.00;99106.97;6208876;22;20007;-71
2024/02/17 00:07:32;;;;;;;39.88;25.73;;;;;;;7.98;100.00;99117.22;6233966;22;20484;-70
2024/02/17 00:09:58;;;;;;;34.95;24.13;;;;;;;8.01;100.00;99122.16;6208064;22;20107;-71
2024/02/17 00:12:23;;;;;;;36.13;24.70;;;;;;;8.01;100.00;99116.97;6232083;22;20662;-70
2024/02/17 00:14:49;;;;;;;37.05;25.05;;;;;;;7.96;100.00;99108.72;6232070;22;20705;-71
2024/02/17 00:17:15;;;;;;;36.55;25.08;;;;;;;7.98;100.00;99117.22;6260646;22;20101;-70
2024/02/17 00:19:42;;;;;;;39.00;25.60;;;;;;;7.84;100.00;99120.84;6260878;22;20014;-70
2024/02/17 00:22:10;;;;;;;36.00;25.95;;;;;;;7.65;100.00;99092.94;6233158;22;20561;-70
2024/02/17 00:24:37;;;;;;;39.65;26.20;;;;;;;7.78;100.00;99118.72;6208891;22;20090;-71
2024/02/17 00:27:05;;;;;;;39.97;26.42;;;;;;;7.61;100.00;99122.53;6207767;22;20054;-71
2024/02/17 00:29:31;;;;;;;39.05;26.00;;;;;;;7.45;100.00;99113.31;6207932;22;20008;-69
2024/02/17 00:31:56;;;;;;;42.92;26.73;;;;;;;7.42;100.00;99104.97;6207642;22;20018;-69
2024/02/17 00:34:23;;;;;;;41.90;26.65;;;;;;;7.43;100.00;99110.03;6208253;22;20065;-70
2024/02/17 00:36:48;;;;;;;40.35;25.63;;;;;;;7.40;100.00;99110.25;6208300;22;20019;-71
2024/02/17 00:39:14;;;;;;;37.35;25.60;;;;;;;7.40;100.00;99112.84;6233423;22;20118;-69
2024/02/17 00:41:40;;;;;;;40.47;26.45;;;;;;;7.42;100.00;99116.13;6232907;22;20114;-70
2024/02/17 00:44:05;;;;;;;39.33;25.52;;;;;;;7.40;100.00;99119.78;6233034;22;20502;-71
2024/02/17 00:46:35;;;;;;;39.78;25.40;;;;;;;7.13;100.00;99069.09;6207373;22;20019;-70
2024/02/17 00:49:01;;;;;;;37.20;24.33;;;;;;;7.50;100.00;99124.16;6260949;22;20012;-70
2024/02/17 00:51:31;;;;;;;36.75;25.17;;;;;;;7.49;100.00;99117.34;6207223;22;20404;-71
2024/02/17 00:53:56;;;;;;;37.28;24.98;;;;;;;7.57;100.00;99115.94;6232909;22;20476;-71
2024/02/17 00:56:22;;;;;;;36.80;25.15;;;;;;;7.65;100.00;99116.22;6232480;22;20004;-70
2024/02/17 00:58:52;;;;;;;35.67;24.50;;;;;;;7.27;100.00;99057.78;6232697;22;20040;-71
2024/02/17 01:01:17;;;;;;;36.10;25.00;;;;;;;7.67;100.00;99112.56;6233214;22;20086;-71
2024/02/17 01:03:43;;;;;;;37.80;25.13;;;;;;;7.63;100.00;99099.94;6207139;22;20563;-69
2024/02/17 01:06:09;;;;;;;37.13;24.73;;;;;;;7.66;100.00;99110.09;6206804;22;20067;-70
2024/02/17 01:08:35;;;;;;;38.63;24.65;;;;;;;7.65;100.00;99118.81;6260613;22;20012;-69
2024/02/17 01:11:01;;;;;;;40.60;26.30;;;;;;;7.41;100.00;99074.84;6205099;22;20374;-71
2024/02/17 01:13:26;;;;;;;34.58;24.60;;;;;;;7.68;100.00;99114.22;6230105;22;20015;-71
2024/02/17 01:15:52;;;;;;;37.67;24.88;;;;;;;7.73;100.00;99120.81;6230542;22;20003;-69
2024/02/17 01:18:19;;;;;;;37.10;25.83;;;;;;;7.39;100.00;99071.56;6204369;22;20012;-69
2024/02/17 01:20:45;;;;;;;36.13;24.85;;;;;;;7.52;100.00;99121.47;6229830;22;20012;-70
2024/02/17 01:23:12;;;;;;;38.53;26.30;;;;;;;7.08;100.00;99073.78;6203639;22;20382;-71
2024/02/17 01:25:38;;;;;;;36.15;24.85;;;;;;;7.43;100.00;99120.38;6206626;22;20523;-71
2024/02/17 01:28:04;;;;;;;36.08;25.05;;;;;;;7.53;100.00;99117.94;6204762;22;20132;-69
2024/02/17 01:30:33;;;;;;;36.55;24.67;;;;;;;7.51;100.00;99117.22;6258980;22;20014;-71
2024/02/17 01:32:59;;;;;;;33.55;22.98;;;;;;;7.41;100.00;99105.88;6230631;22;20016;-70
2024/02/17 01:35:27;;;;;;;36.72;24.05;;;;;;;7.40;100.00;99114.59;6230025;22;20010;-70
2024/02/17 01:37:54;;;;;;;36.22;24.00;;;;;;;7.39;100.00;99106.03;6230905;22;20652;-71
2024/02/17 01:40:20;;;;;;;35.28;23.98;;;;;;;7.49;100.00;99106.16;6203513;22;20019;-70
2024/02/17 01:42:45;;;;;;;31.73;22.30;;;;;;;7.45;100.00;99100.38;6229062;22;20012;-70
2024/02/17 01:45:11;;;;;;;32.30;23.17;;;;;;;7.25;100.00;99088.09;6231938;22;20003;-69
2024/02/17 01:47:37;;;;;;;36.63;22.38;;;;;;;7.47;100.00;99113.22;6203849;22;20758;-70
2024/02/17 01:50:06;;;;;;;33.80;23.20;;;;;;;7.47;100.00;99110.63;6231125;22;20008;-70
2024/02/17 01:52:32;;;;;;;33.58;23.15;;;;;;;7.23;100.00;99070.09;6204894;22;20008;-69
2024/02/17 01:54:59;;;;;;;36.42;23.85;;;;;;;7.36;100.00;99102.84;6204293;22;20373;-71
2024/02/17 01:57:24;;;;;;;35.63;23.67;;;;;;;7.28;100.00;99103.38;6228572;22;20065;-69
2024/02/17 01:59:52;;;;;;;34.72;23.83;;;;;;;7.25;100.00;99109.59;6230713;22;20007;-70
2024/02/17 02:02:17;;;;;;;32.53;22.77;;;;;;;7.32;100.00;99108.22;6230841;22;20085;-69
2024/02/17 02:04:46;;;;;;;31.27;22.42;;;;;;;7.27;100.00;99106.91;6231307;22;20063;-71
2024/02/17 02:07:11;;;;;;;35.65;22.67;;;;;;;7.28;100.00;99109.41;6231203;22;20851;-69
2024/02/17 02:09:37;;;;;;;37.08;23.02;;;;;;;7.36;100.00;99108.81;6204302;22;20015;-70
2024/02/17 02:12:05;;;;;;;39.00;24.35;;;;;;;7.38;100.00;99103.53;6204331;22;20123;-70
2024/02/17 02:14:33;;;;;;;36.53;22.65;;;;;;;7.20;100.00;99095.38;6231530;22;20011;-71
2024/02/17 02:16:59;;;;;;;33.97;23.02;;;;;;;7.23;100.00;99106.31;6203899;22;20007;-71
2024/02/17 02:19:24;;;;;;;30.90;22.00;;;;;;;7.23;100.00;99106.31;6207073;22;20011;-70
2024/02/17 02:21:50;;;;;;;32.83;21.50;;;;;;;7.28;100.00;99101.63;6255927;22;20016;-69
2024/02/17 02:24:15;;;;;;;35.10;22.30;;;;;;;7.12;100.00;99112.25;6204932;22;20112;-71
2024/02/17 02:26:41;;;;;;;36.13;23.83;;;;;;;7.11;100.00;99099.44;6202563;22;20023;-70
2024/02/17 02:29:11;;;;;;;32.85;23.10;;;;;;;7.10;100.00;99090.00;6233267;22;19999;-70
2024/02/17 02:31:36;;;;;;;34.95;22.25;;;;;;;7.06;100.00;99084.25;6252429;22;20061;-70
2024/02/17 02:34:04;;;;;;;37.20;23.48;;;;;;;7.07;100.00;99078.13;6206675;22;20583;-70
2024/02/17 02:36:32;;;;;;;34.58;22.52;;;;;;;7.03;100.00;99075.91;6256307;22;20118;-69
2024/02/17 02:38:58;;;;;;;33.33;23.17;;;;;;;7.02;100.00;99085.41;6232194;22;20755;-69
2024/02/17 02:41:28;;;;;;;37.22;23.90;;;;;;;6.67;100.00;99025.91;6255959;22;20007;-70
2024/02/17 02:43:53;;;;;;;33.92;23.35;;;;;;;7.00;100.00;99076.94;6231924;22;20011;-69
2024/02/17 02:46:21;;;;;;;32.53;21.33;;;;;;;7.04;100.00;99077.53;6230206;22;20014;-71
2024/02/17 02:48:47;;;;;;;34.25;21.92;;;;;;;7.07;100.00;99085.91;6205367;22;20052;-70
2024/02/17 02:51:18;;;;;;;36.58;22.80;;;;;;;7.04;100.00;99075.75;6204986;22;20022;-70
2024/02/17 02:53:45;;;;;;;33.67;21.15;;;;;;;7.05;100.00;99066.28;6229393;22;20007;-71
2024/02/17 02:56:11;;;;;;;28.88;21.17;;;;;;;7.05;100.00;99071.44;6207776;22;20095;-71
2024/02/17 02:58:39;;;;;;;33.35;21.73;;;;;;;6.98;100.00;99072.81;6206276;22;20018;-70
2024/02/17 03:01:04;;;;;;;31.48;21.33;;;;;;;6.98;100.00;99068.47;6260127;22;20018;-70
2024/02/17 03:03:32;;;;;;;31.83;21.50;;;;;;;6.92;100.00;99066.34;6206648;22;20008;-70
2024/02/17 03:05:57;;;;;;;32.55;21.35;;;;;;;6.85;100.00;99054.78;6231335;22;20149;-70
2024/02/17 03:08:23;;;;;;;32.00;22.63;;;;;;;7.00;100.00;99082.09;6259529;22;20086;-71
2024/02/17 03:10:48;;;;;;;30.65;22.40;;;;;;;7.05;100.00;99085.19;6231408;22;20094;-70
2024/02/17 03:13:14;;;;;;;28.90;21.10;;;;;;;7.02;100.00;99084.59;6231998;22;20057;-70
2024/02/17 03:15:39;;;;;;;31.33;20.63;;;;;;;7.04;100.00;99090.47;6232336;22;20595;-70
2024/02/17 03:18:07;;;;;;;28.63;20.70;;;;;;;6.80;100.00;99051.69;6207987;22;20110;-69
2024/02/17 03:20:33;;;;;;;29.80;20.42;;;;;;;7.03;100.00;99094.81;6232436;22;20015;-71
2024/02/17 03:22:58;;;;;;;26.20;18.77;;;;;;;6.69;100.00;99062.78;6206804;22;20026;-70
2024/02/17 03:25:24;;;;;;;30.23;20.02;;;;;;;6.49;100.00;99038.38;6232547;22;20012;-70
2024/02/17 03:27:52;;;;;;;28.10;20.02;;;;;;;6.83;100.00;99085.91;6201117;22;20012;-69
2024/02/17 03:30:19;;;;;;;28.35;20.08;;;;;;;6.81;100.00;99092.94;6232762;22;20007;-71
2024/02/17 03:32:49;;;;;;;29.67;20.33;;;;;;;6.79;100.00;99091.38;6204938;22;20016;-68
2024/02/17 03:35:15;;;;;;;30.80;19.75;;;;;;;6.75;100.00;99083.03;6227475;23;20036;-70
2024/02/17 03:37:41;;;;;;;30.42;20.77;;;;;;;6.73;100.00;99092.66;6198598;23;20166;-70
2024/02/17 03:40:10;;;;;;;31.38;20.15;;;;;;;6.75;100.00;99098.53;6257811;22;20027;-70
2024/02/17 03:42:37;;;;;;;32.13;19.73;;;;;;;6.68;100.00;99095.56;6230656;22;20018;-68
2024/02/17 03:45:03;;;;;;;28.45;19.52;;;;;;;6.51;100.00;99099.31;6207651;22;20449;-70
2024/02/17 03:47:28;;;;;;;30.40;19.65;;;;;;;6.52;100.00;99095.00;6232040;22;20069;-70
2024/02/17 03:49:54;;;;;;;29.70;19.50;;;;;;;6.46;100.00;99109.16;6206265;22;20429;-70
2024/02/17 03:52:24;;;;;;;29.65;19.17;;;;;;;6.32;100.00;99104.94;6205338;22;20741;-71
2024/02/17 03:54:49;;;;;;;30.40;19.67;;;;;;;6.00;100.00;99060.66;6206443;22;20004;-70
2024/02/17 03:57:17;;;;;;;30.92;19.90;;;;;;;6.01;100.00;99053.75;6230314;22;20003;-70
2024/02/17 03:59:45;;;;;;;31.98;20.20;;;;;;;6.06;100.00;99055.09;6231864;22;20014;-69
2024/02/17 04:02:12;;;;;;;31.45;19.80;;;;;;;6.42;100.00;99112.06;6230441;22;20007;-68
2024/02/17 04:04:40;;;;;;;26.88;18.05;;;;;;;6.39;100.00;99105.34;6231855;22;20593;-70
2024/02/17 04:07:06;;;;;;;27.67;19.25;;;;;;;6.39;100.00;99107.94;6205191;22;20019;-69
2024/02/17 04:09:31;;;;;;;30.38;18.65;;;;;;;6.29;100.00;99106.91;6232091;22;20309;-69
2024/02/17 04:11:56;;;;;;;28.92;19.23;;;;;;;6.33;100.00;99119.53;6228527;22;20008;-70
2024/02/17 04:14:22;;;;;;;29.27;19.42;;;;;;;6.40;100.00;99124.25;6206402;22;20015;-70
2024/02/17 04:16:49;;;;;;;25.33;18.45;;;;;;;6.35;100.00;99122.81;6200332;23;20012;-71
2024/02/17 04:19:18;;;;;;;29.63;18.80;;;;;;;6.18;100.00;99092.16;6245616;22;20011;-71
2024/02/17 04:21:44;;;;;;;27.15;18.48;;;;;;;6.31;100.00;99139.44;6232447;22;20008;-70
2024/02/17 04:24:12;;;;;;;29.52;18.83;;;;;;;6.06;100.00;99088.66;6204281;22;20015;-69
2024/02/17 04:26:37;;;;;;;28.45;18.63;;;;;;;6.33;100.00;99136.75;6206409;22;20911;-70
2024/02/17 04:29:05;;;;;;;27.65;18.85;;;;;;;6.32;100.00;99143.69;6205878;22;20016;-70
2024/02/17 04:31:33;;;;;;;25.17;17.65;;;;;;;6.23;100.00;99153.81;6229632;22;20004;-69
2024/02/17 04:34:01;;;;;;;26.52;18.25;;;;;;;6.18;100.00;99135.22;6207257;22;20440;-69
2024/02/17 04:36:26;;;;;;;26.10;18.00;;;;;;;6.22;100.00;99147.81;6256174;22;20004;-69
2024/02/17 04:38:54;;;;;;;25.88;18.27;;;;;;;6.14;100.00;99147.50;6231354;22;20023;-70
2024/02/17 04:41:21;;;;;;;26.38;17.15;;;;;;;6.24;100.00;99160.63;6228749;22;20028;-70
2024/02/17 04:43:49;;;;;;;26.10;17.33;;;;;;;6.23;100.00;99154.63;6232382;22;20007;-70
2024/02/17 04:46:15;;;;;;;28.58;18.35;;;;;;;6.21;100.00;99155.69;6204901;22;20011;-69
2024/02/17 04:48:40;;;;;;;30.30;18.25;;;;;;;6.14;100.00;99157.84;6204520;22;20046;-70
2024/02/17 04:51:06;;;;;;;25.58;17.00;;;;;;;6.06;100.00;99157.50;6204053;22;20014;-70
2024/02/17 04:53:31;;;;;;;27.40;17.30;;;;;;;6.08;100.00;99164.25;6230100;22;20000;-68
2024/02/17 04:55:59;;;;;;;26.23;17.67;;;;;;;5.99;100.00;99157.13;6230798;22;20008;-70
2024/02/17 04:58:29;;;;;;;30.13;18.92;;;;;;;5.98;100.00;99160.63;6229480;22;20072;-70
2024/02/17 05:00:57;;;;;;;26.55;17.30;;;;;;;6.01;100.00;99162.19;6206673;22;20008;-70
2024/02/17 05:03:23;;;;;;;29.75;17.73;;;;;;;5.94;100.00;99167.72;6203582;22;20085;-70
2024/02/17 05:05:48;;;;;;;26.02;17.70;;;;;;;5.85;100.00;99168.31;6225929;22;20441;-70
2024/02/17 05:08:17;;;;;;;25.27;17.52;;;;;;;5.86;100.00;99164.81;6204487;22;20011;-70
2024/02/17 05:10:45;;;;;;;28.27;18.45;;;;;;;5.56;100.00;99172.78;6225355;23;20042;-70
2024/02/17 05:13:10;;;;;;;27.15;19.17;;;;;;;5.46;100.00;99135.63;6230944;22;20119;-71
2024/02/17 05:15:35;;;;;;;28.13;19.40;;;;;;;5.85;100.00;99185.56;6255212;22;20007;-69
2024/02/17 05:18:01;;;;;;;28.60;18.17;;;;;;;5.82;100.00;99176.25;6232914;22;20067;-71
2024/02/17 05:20:26;;;;;;;29.83;17.92;;;;;;;5.83;100.00;99183.06;6203575;22;20043;-71
2024/02/17 05:22:52;;;;;;;28.70;19.38;;;;;;;5.69;100.00;99178.00;6228729;22;20022;-71
2024/02/17 05:25:20;;;;;;;29.65;17.95;;;;;;;5.33;100.00;99126.09;6205295;22;20011;-70
2024/02/17 05:27:47;;;;;;;28.20;18.05;;;;;;;5.63;100.00;99181.78;6225856;23;20008;-69
2024/02/17 05:30:17;;;;;;;26.52;18.25;;;;;;;5.72;100.00;99198.44;6230378;22;20011;-71
2024/02/17 05:32:45;;;;;;;26.63;18.20;;;;;;;5.80;100.00;99185.03;6257537;22;20039;-69
2024/02/17 05:35:15;;;;;;;30.77;18.60;;;;;;;5.68;100.00;99186.66;6231023;22;20029;-71
2024/02/17 05:37:43;;;;;;;30.33;18.27;;;;;;;5.68;100.00;99189.25;6231050;22;20008;-71
2024/02/17 05:40:12;;;;;;;27.00;18.90;;;;;;;5.36;100.00;99198.09;6231248;22;20094;-71
2024/02/17 05:42:38;;;;;;;27.58;18.23;;;;;;;5.23;100.00;99186.09;6203032;22;20011;-70
2024/02/17 05:45:07;;;;;;;27.02;18.27;;;;;;;5.35;100.00;99191.31;6205567;22;20397;-72
2024/02/17 05:47:34;;;;;;;26.57;18.17;;;;;;;5.26;100.00;99193.66;6205115;22;20008;-69
2024/02/17 05:50:00;;;;;;;29.33;18.13;;;;;;;5.38;100.00;99201.44;6229204;22;20082;-68
2024/02/17 05:52:30;;;;;;;29.23;18.42;;;;;;;5.56;100.00;99199.41;6205723;22;20011;-70
2024/02/17 05:54:58;;;;;;;29.20;18.63;;;;;;;5.68;100.00;99209.91;6228633;22;20079;-70
2024/02/17 05:57:23;;;;;;;26.42;17.75;;;;;;;5.71;100.00;99200.19;6231231;22;20756;-71
2024/02/17 05:59:53;;;;;;;27.67;17.48;;;;;;;5.77;100.00;99197.22;6232985;22;20011;-70
2024/02/17 06:02:19;;;;;;;26.67;18.05;;;;;;;5.84;100.00;99205.38;6235030;22;20109;-72
2024/02/17 06:04:44;;;;;;;28.80;17.70;;;;;;;5.84;100.00;99200.22;6237632;22;20074;-70
2024/02/17 06:07:12;;;;;;;24.70;17.73;;;;;;;5.87;100.00;99217.25;6233889;22;20444;-69
2024/02/17 06:09:38;;;;;;;25.55;17.48;;;;;;;5.88;100.00;99206.84;6233867;22;20012;-70
2024/02/17 06:12:03;;;;;;;25.95;18.33;;;;;;;5.91;100.00;99206.66;6231084;22;20778;-70
2024/02/17 06:14:31;;;;;;;27.88;18.30;;;;;;;5.95;100.00;99221.03;6206477;22;20042;-71
2024/02/17 06:16:56;;;;;;;26.35;17.42;;;;;;;5.55;100.00;99168.56;6257231;22;20007;-70
2024/02/17 06:22:11;;;;;;;25.73;16.75;;;;;;;5.39;100.00;99182.44;6233787;22;20522;-70
2024/02/17 06:24:36;;;;;;;26.88;17.80;;;;;;;5.72;100.00;99227.63;6229879;22;20003;-69
2024/02/17 06:27:01;;;;;;;27.65;17.42;;;;;;;5.68;100.00;99231.34;6231106;22;20012;-72
2024/02/17 06:29:27;;;;;;;25.23;17.90;;;;;;;5.62;100.00;99223.16;6230774;22;20100;-72
2024/02/17 06:31:54;;;;;;;26.73;17.42;;;;;;;5.68;100.00;99238.28;6205248;22;20507;-70
2024/02/17 06:34:20;;;;;;;26.58;18.00;;;;;;;5.63;100.00;99232.56;6230768;22;20017;-71
2024/02/17 06:36:45;;;;;;;25.70;17.83;;;;;;;5.34;100.00;99176.75;6225537;23;20008;-71
2024/02/17 06:39:15;;;;;;;26.67;17.77;;;;;;;5.66;100.00;99238.38;6206995;22;20015;-72
2024/02/17 06:41:41;;;;;;;24.15;17.08;;;;;;;5.76;100.00;99247.16;6232394;22;20021;-70
2024/02/17 06:44:07;;;;;;;25.35;17.70;;;;;;;5.69;100.00;99239.91;6208846;22;20023;-71
2024/02/17 06:46:33;;;;;;;29.40;17.92;;;;;;;5.69;100.00;99245.88;6232916;22;20348;-71
2024/02/17 06:48:58;;;;;;;26.83;17.95;;;;;;;5.73;100.00;99243.94;6232333;22;20065;-72
2024/02/17 06:51:24;;;;;;;27.50;17.83;;;;;;;5.68;100.00;99241.69;6207804;22;20019;-71
2024/02/17 06:53:51;;;;;;;26.33;17.08;;;;;;;5.57;100.00;99257.00;6224404;22;20066;-71
2024/02/17 06:56:21;;;;;;;25.35;17.58;;;;;;;5.70;100.00;99259.66;6208186;22;20081;-71
2024/02/17 06:58:49;;;;;;;25.83;17.05;;;;;;;5.68;100.00;99261.50;6203577;22;20007;-72
2024/02/17 07:01:17;;;;;;;25.52;17.48;;;;;;;5.58;100.00;99262.09;6260724;22;20007;-72
2024/02/17 07:03:42;;;;;;;26.23;16.73;;;;;;;5.55;100.00;99256.28;6231223;22;20007;-70
2024/02/17 07:06:08;;;;;;;26.83;16.58;;;;;;;5.74;100.00;99266.25;6234264;22;20019;-72
2024/02/17 07:08:34;;;;;;;25.95;17.50;;;;;;;5.69;100.00;99276.84;6205939;22;20412;-70
2024/02/17 07:10:59;;;;;;;28.20;17.30;;;;;;;5.72;100.00;99278.44;6229862;22;20111;-71
2024/02/17 07:13:27;;;;;;;28.90;17.50;;;;;;;5.65;100.00;99279.75;6258476;22;20007;-72
2024/02/17 07:15:55;;;;;;;24.98;17.52;;;;;;;5.66;100.00;99292.56;6230414;22;20476;-70
2024/02/17 07:18:20;;;;;;;28.63;18.38;;;;;;;5.67;100.00;99295.94;6207593;22;20016;-72
2024/02/17 07:20:50;;;;;;;26.27;17.73;;;;;;;5.59;100.00;99291.28;6229446;22;20007;-71
2024/02/17 07:23:17;;;;;;;27.73;17.60;;;;;;;5.52;100.00;99292.59;6207650;22;20019;-71
2024/02/17 07:25:47;;;;;;;28.70;18.67;;;;;;;5.64;100.00;99302.16;6232105;22;20015;-72
2024/02/17 07:28:13;;;;;;;28.30;17.92;;;;;;;5.73;100.00;99303.28;6232118;22;20511;-71
2024/02/17 07:30:41;;;;;;;28.42;17.73;;;;;;;5.75;100.00;99311.78;6231929;22;20034;-72
2024/02/17 07:33:07;;;;;;;28.13;19.00;;;;;;;5.72;100.00;99299.91;6230358;22;20018;-71
2024/02/17 07:35:32;;;;;;;25.38;17.75;;;;;;;5.72;100.00;99323.13;6230607;22;20007;-70
2024/02/17 07:38:00;;;;;;;25.33;17.48;;;;;;;5.74;100.00;99316.09;6205207;22;20047;-71
2024/02/17 07:40:25;;;;;;;25.13;17.48;;;;;;;5.83;100.00;99322.44;6229839;22;20027;-70
2024/02/17 07:42:53;;;;;;;28.15;18.58;;;;;;;5.85;100.00;99314.59;6230904;22;20022;-71
2024/02/17 07:45:19;;;;;;;25.77;18.52;;;;;;;5.76;100.00;99316.84;6205523;22;20030;-72
2024/02/17 07:47:44;;;;;;;26.13;17.63;;;;;;;5.48;100.00;99279.06;6259290;22;20736;-72
2024/02/17 07:50:12;;;;;;;25.83;18.00;;;;;;;5.74;100.00;99318.69;6204193;22;20019;-72
2024/02/17 07:52:37;;;;;;;28.52;18.58;;;;;;;5.81;100.00;99332.03;6206501;22;20007;-72
2024/02/17 07:55:03;;;;;;;27.98;18.35;;;;;;;5.78;100.00;99337.38;6223974;22;20410;-71
2024/02/17 07:57:29;;;;;;;27.60;18.60;;;;;;;5.83;100.00;99334.53;6203615;22;20574;-70
2024/02/17 07:59:54;;;;;;;28.15;18.67;;;;;;;5.59;100.00;99286.94;6197018;22;20095;-70
2024/02/17 08:02:20;;;;;;;24.23;18.40;;;;;;;5.87;100.00;99328.25;6203858;22;20020;-71
2024/02/17 08:04:48;;;;;;;27.35;18.27;;;;;;;5.87;100.00;99329.06;6225575;23;20079;-68
2024/02/17 08:07:15;;;;;;;26.83;18.27;;;;;;;5.92;100.00;99333.94;6198885;23;20016;-70
2024/02/17 08:09:41;;;;;;;26.50;18.40;;;;;;;5.87;100.00;99347.13;6197840;23;20579;-68
2024/02/17 08:12:10;;;;;;;27.92;18.23;;;;;;;5.93;100.00;99348.50;6204065;22;20022;-68
2024/02/17 08:14:40;;;;;;;;;;;;;;;5.97;100.00;99347.44;6233240;22;19999;-71
2024/02/17 08:17:08;;;;;;;27.77;17.50;;;;;;;6.09;100.00;99350.97;6231814;22;19919;-70
2024/02/17 08:19:36;;;;;;;27.98;19.35;;;;;;;5.87;100.00;99308.41;6232518;22;20012;-69
2024/02/17 08:22:04;;;;;;;32.88;20.02;;;;;;;5.84;100.00;99313.78;6203892;22;20435;-70
2024/02/17 08:24:34;;;;;;;29.15;18.15;;;;;;;5.79;100.00;99302.94;6229117;22;20111;-68
2024/02/17 08:27:04;;;;;;;33.22;20.25;;;;;;;6.07;100.00;99361.38;6206700;22;20015;-70
2024/02/17 08:29:31;;;;;;;30.90;19.40;;;;;;;5.67;100.00;99309.66;6214766;23;20610;-70
2024/02/17 08:31:57;;;;;;;32.03;20.25;;;;;;;5.89;100.00;99360.75;6226113;22;20004;-70
2024/02/17 08:34:24;;;;;;;26.92;18.42;;;;;;;5.87;100.00;99357.44;6229653;22;20448;-69
2024/02/17 08:36:52;;;;;;;31.52;19.38;;;;;;;5.95;100.00;99364.72;6230340;22;20706;-69
2024/02/17 08:39:18;;;;;;;30.98;19.17;;;;;;;5.68;100.00;99331.97;6201062;22;20015;-70
2024/02/17 08:41:45;;;;;;;26.48;18.40;;;;;;;5.92;100.00;99357.19;6227816;22;20887;-71
2024/02/17 08:44:13;;;;;;;25.92;18.92;;;;;;;6.06;100.00;99369.22;6230325;22;20015;-69
2024/02/17 08:46:38;;;;;;;25.42;18.00;;;;;;;6.09;100.00;99379.38;6230779;22;20043;-70
2024/02/17 08:49:04;;;;;;;27.05;19.60;;;;;;;5.88;100.00;99338.47;6230160;22;20072;-70
2024/02/17 08:51:29;;;;;;;27.05;19.42;;;;;;;6.10;100.00;99374.13;6206409;22;20012;-71
2024/02/17 08:53:55;;;;;;;28.30;18.50;;;;;;;6.11;100.00;99380.91;6203573;22;20007;-71
2024/02/17 08:56:20;;;;;;;28.20;18.23;;;;;;;5.94;100.00;99381.97;6206789;22;20021;-70
2024/02/17 08:58:46;;;;;;;27.08;19.20;;;;;;;6.09;100.00;99379.38;6223321;23;20012;-70
2024/02/17 09:01:12;;;;;;;24.73;18.23;;;;;;;6.20;100.00;99384.66;6256779;22;20039;-68
2024/02/17 09:03:42;;;;;;;26.10;18.02;;;;;;;6.29;100.00;99380.69;6199488;22;20616;-70
2024/02/17 09:06:08;;;;;;;26.65;18.60;;;;;;;6.33;100.00;99382.13;6255324;22;20027;-70
2024/02/17 09:08:35;;;;;;;24.13;17.48;;;;;;;6.20;100.00;99381.28;6202129;22;20036;-70
2024/02/17 09:11:01;;;;;;;27.88;18.88;;;;;;;6.18;100.00;99388.28;6224109;22;20011;-70
2024/02/17 09:13:26;;;;;;;27.25;18.17;;;;;;;6.28;100.00;99390.19;6227775;22;20018;-69
2024/02/17 09:15:51;;;;;;;26.23;18.63;;;;;;;6.32;100.00;99393.41;6199312;22;20099;-68
2024/02/17 09:18:17;;;;;;;25.30;18.25;;;;;;;6.30;100.00;99395.25;6202955;22;20022;-68
2024/02/17 09:20:42;;;;;;;29.10;20.20;;;;;;;6.10;100.00;99374.13;6221720;23;20552;-68
2024/02/17 09:23:08;;;;;;;27.60;18.70;;;;;;;6.15;100.00;99355.72;6228762;22;20138;-68
2024/02/17 09:25:33;;;;;;;27.92;18.23;;;;;;;6.45;100.00;99403.78;6200627;22;20065;-68
2024/02/17 09:27:58;;;;;;;28.48;19.20;;;;;;;6.46;100.00;99406.25;6202699;22;20007;-68
2024/02/17 09:30:24;;;;;;;27.23;18.65;;;;;;;6.52;100.00;99408.44;6226207;22;20304;-69
2024/02/17 09:32:50;;;;;;;28.55;18.77;;;;;;;6.47;100.00;99409.66;6224588;22;20008;-70
2024/02/17 09:35:20;;;;;;;26.77;19.23;;;;;;;6.18;100.00;99354.72;6227854;22;20004;-69
2024/02/17 09:37:46;;;;;;;25.33;18.88;;;;;;;6.56;100.00;99403.91;6202495;22;20737;-69
2024/02/17 09:40:14;;;;;;;27.60;19.40;;;;;;;6.67;100.00;99416.94;6229027;22;20064;-71
2024/02/17 09:42:40;;;;;;;25.58;18.02;;;;;;;6.77;100.00;99414.59;6229059;22;20012;-70
2024/02/17 09:45:05;;;;;;;30.00;18.88;;;;;;;6.77;100.00;99409.41;6202207;22;20015;-72
2024/02/17 09:47:33;;;;;;;27.65;18.65;;;;;;;6.83;100.00;99413.38;6225575;22;20008;-70
2024/02/17 09:49:59;;;;;;;26.83;19.08;;;;;;;6.81;100.00;99413.47;6254858;22;20011;-69
2024/02/17 09:52:28;;;;;;;25.00;18.92;;;;;;;6.89;100.00;99413.78;6200896;22;20018;-71
2024/02/17 09:54:57;;;;;;;24.40;17.35;;;;;;;6.96;100.00;99413.38;6226573;22;20023;-70
2024/02/17 09:57:22;;;;;;;25.30;18.30;;;;;;;6.93;100.00;99411.81;6226532;22;20061;-68
2024/02/17 09:59:47;;;;;;;27.35;18.30;;;;;;;6.83;100.00;99375.41;6224786;22;20011;-70
2024/02/17 10:02:15;;;;;;;23.73;17.70;;;;;;;7.12;100.00;99427.78;6196336;23;20737;-70
2024/02/17 10:04:56;;;;;;;25.95;17.50;;;;;;;7.19;100.00;99412.69;6215088;23;20607;-69
2024/02/17 10:07:24;;;;;;;23.55;16.40;;;;;;;7.31;100.00;99423.94;6217601;23;20516;-70
2024/02/17 10:09:52;;;;;;;21.98;16.50;;;;;;;7.04;100.00;99373.13;6215949;22;20000;-69
2024/02/17 10:12:17;;;;;;;23.92;16.10;;;;;;;7.47;100.00;99424.56;6197793;22;20787;-71
2024/02/17 10:14:55;;;;;;;19.10;14.07;;;;;;;7.61;100.00;99433.97;6220828;22;20023;-69
2024/02/17 10:17:26;;;;;;;21.17;13.98;;;;;;;7.51;100.00;99391.53;6195775;22;20866;-69
2024/02/17 10:19:54;;;;;;;20.10;14.43;;;;;;;8.01;100.00;99438.97;6223965;22;20026;-71
2024/02/17 10:22:22;;;;;;;20.25;15.48;;;;;;;8.20;100.00;99442.84;6196929;22;20011;-66
2024/02/17 10:25:01;;;;;;;17.70;12.32;;;;;;;8.34;100.00;99444.44;6223376;22;20038;-70
2024/02/17 10:27:29;;;;;;;19.13;11.77;;;;;;;8.44;100.00;99443.69;6222189;22;20011;-67
2024/02/17 10:30:10;;;;;;;19.48;11.63;;;;;;;8.78;100.00;99438.66;6197212;22;20008;-67
2024/02/17 10:32:36;;;;;;;17.67;11.27;;;;;;;8.97;97.89;99435.50;6196383;22;20418;-69
2024/02/17 10:35:03;;;;;;;18.40;11.02;;;;;;;9.09;99.52;99432.94;6219109;22;20019;-67
2024/02/17 10:37:30;;;;;;;18.30;11.93;;;;;;;8.98;100.00;99426.81;6221660;22;20019;-66
2024/02/17 10:40:00;;;;;;;20.10;12.75;;;;;;;8.93;100.00;99400.38;6219850;22;20047;-67
2024/02/17 10:42:26;;;;;;;21.08;14.60;;;;;;;9.12;100.00;99448.28;6196610;22;20679;-69
2024/02/17 10:44:51;;;;;;;19.35;11.95;;;;;;;9.15;100.00;99438.50;6194913;22;20011;-66
2024/02/17 10:47:19;;;;;;;18.67;10.10;;;;;;;9.22;100.00;99437.09;6249667;22;20004;-67
2024/02/17 10:49:48;;;;;;;15.82;9.95;;;;;;;9.38;98.94;99433.34;6193980;22;20030;-69
2024/02/17 10:52:15;;;;;;;;;;;;;;;9.47;97.52;99439.59;6223993;22;20281;-70
2024/02/17 10:54:41;;;;;;;16.70;10.45;;;;;;;9.61;96.57;99445.38;6220119;22;19917;-65
2024/02/17 10:57:09;;;;;;;15.93;10.25;;;;;;;9.59;95.14;99434.28;6220536;22;20007;-66
2024/02/17 10:59:36;;;;;;;16.02;10.27;;;;;;;9.64;92.99;99428.75;6219392;22;20372;-67
2024/02/17 11:02:05;;;;;;;13.00;9.05;;;;;;;9.37;95.42;99390.97;6221022;22;20008;-67
2024/02/17 11:04:31;;;;;;;16.73;10.63;;;;;;;9.49;96.42;99389.22;6196981;22;20018;-67
2024/02/17 11:06:57;;;;;;;15.13;10.23;;;;;;;9.86;95.42;99427.09;6219460;22;20039;-67
2024/02/17 11:09:27;;;;;;;17.90;11.18;;;;;;;9.52;96.69;99373.41;6219988;22;20503;-69
2024/02/17 11:11:57;;;;;;;15.60;9.68;;;;;;;10.02;96.15;99424.94;6217862;22;20011;-69
2024/02/17 11:14:42;;;;;;;15.50;10.10;;;;;;;10.33;92.97;99435.50;6198306;22;20105;-67
2024/02/17 11:17:09;;;;;;;14.65;8.75;;;;;;;10.43;91.78;99428.63;6220886;22;20012;-68
2024/02/17 11:19:36;;;;;;;13.38;8.68;;;;;;;10.53;93.35;99411.34;6220898;22;20411;-68